sensor_id;sensor_type;location;lat;lon;timestamp;temperature;humidity
27741;DHT22;15134;48.768;9.184;2023-02-28T00:01:23;-0.30;99.90
27741;DHT22;15134;48.768;9.184;2023-02-28T00:03:49;-0.40;99.90
27741;DHT22;15134;48.768;9.184;2023-02-28T00:06:20;-0.40;99.90
27741;DHT22;15134;48.768;9.184;2023-02-28T00:08:46;-0.40;99.90
27741;DHT22;15134;48.768;9.184;2023-02-28T00:11:14;-0.50;99.90
27741;DHT22;15134;48.768;9.184;2023-02-28T00:13:47;-0.60;99.90
27741;DHT22;15134;48.768;9.184;2023-02-28T00:16:22;-0.60;99.90
27741;DHT22;15134;48.768;9.184;2023-02-28T00:18:48;-0.60;99.90
27741;DHT22;15134;48.768;9.184;2023-02-28T00:21:15;-0.60;99.90
27741;DHT22;15134;48.768;9.184;2023-02-28T00:23:41;-0.50;99.90
27741;DHT22;15134;48.768;9.184;2023-02-28T00:26:07;-0.50;99.90
27741;DHT22;15134;48.768;9.184;2023-02-28T00:28:33;-0.50;99.90
27741;DHT22;15134;48.768;9.184;2023-02-28T00:30:59;-0.50;99.90
27741;DHT22;15134;48.768;9.184;2023-02-28T00:33:28;-0.60;99.90
27741;DHT22;15134;48.768;9.184;2023-02-28T00:36:02;-0.60;99.90
27741;DHT22;15134;48.768;9.184;2023-02-28T00:38:29;-0.70;99.90
27741;DHT22;15134;48.768;9.184;2023-02-28T00:40:55;-0.70;99.90
27741;DHT22;15134;48.768;9.184;2023-02-28T00:43:20;-0.70;99.90
27741;DHT22;15134;48.768;9.184;2023-02-28T00:45:46;-0.70;99.90
27741;DHT22;15134;48.768;9.184;2023-02-28T00:48:12;-0.70;99.90
27741;DHT22;15134;48.768;9.184;2023-02-28T00:50:38;-0.60;99.90
27741;DHT22;15134;48.768;9.184;2023-02-28T00:53:04;-0.60;99.90
27741;DHT22;15134;48.768;9.184;2023-02-28T00:55:29;-0.60;99.90
27741;DHT22;15134;48.768;9.184;2023-02-28T00:58:01;-0.70;99.90
27741;DHT22;15134;48.768;9.184;2023-02-28T01:00:27;-0.70;99.90
27741;DHT22;15134;48.768;9.184;2023-02-28T01:02:52;-0.70;99.90
27741;DHT22;15134;48.768;9.184;2023-02-28T01:05:18;-0.80;99.90
27741;DHT22;15134;48.768;9.184;2023-02-28T01:07:47;-0.80;99.90
27741;DHT22;15134;48.768;9.184;2023-02-28T01:10:13;-0.90;99.90
27741;DHT22;15134;48.768;9.184;2023-02-28T01:12:38;-0.90;99.90
27741;DHT22;15134;48.768;9.184;2023-02-28T01:15:05;-0.80;99.90
27741;DHT22;15134;48.768;9.184;2023-02-28T01:17:30;-0.80;99.90
27741;DHT22;15134;48.768;9.184;2023-02-28T01:19:59;-0.80;99.90
27741;DHT22;15134;48.768;9.184;2023-02-28T01:22:25;-0.70;99.90
27741;DHT22;15134;48.768;9.184;2023-02-28T01:24:51;-0.80;99.90
27741;DHT22;15134;48.768;9.184;2023-02-28T01:27:22;-0.80;99.90
27741;DHT22;15134;48.768;9.184;2023-02-28T01:29:51;-0.80;99.90
27741;DHT22;15134;48.768;9.184;2023-02-28T01:32:17;-0.70;99.90
27741;DHT22;15134;48.768;9.184;2023-02-28T01:34:43;-0.80;99.90
27741;DHT22;15134;48.768;9.184;2023-02-28T01:37:09;-0.80;99.90
27741;DHT22;15134;48.768;9.184;2023-02-28T01:39:34;-0.80;99.90
27741;DHT22;15134;48.768;9.184;2023-02-28T01:42:00;-0.90;99.90
27741;DHT22;15134;48.768;9.184;2023-02-28T01:47:27;-0.90;99.90
27741;DHT22;15134;48.768;9.184;2023-02-28T01:49:56;-0.90;99.90
27741;DHT22;15134;48.768;9.184;2023-02-28T01:52:23;-0.80;99.90
27741;DHT22;15134;48.768;9.184;2023-02-28T01:54:57;-0.80;99.90
27741;DHT22;15134;48.768;9.184;2023-02-28T01:57:27;-0.70;99.90
27741;DHT22;15134;48.768;9.184;2023-02-28T01:59:58;-0.70;99.90
27741;DHT22;15134;48.768;9.184;2023-02-28T02:02:29;-0.70;99.90
27741;DHT22;15134;48.768;9.184;2023-02-28T02:04:59;-0.70;99.90
27741;DHT22;15134;48.768;9.184;2023-02-28T02:07:30;-0.70;99.90
27741;DHT22;15134;48.768;9.184;2023-02-28T02:18:48;-0.80;99.90
27741;DHT22;15134;48.768;9.184;2023-02-28T02:30:27;-0.70;99.90
27741;DHT22;15134;48.768;9.184;2023-02-28T02:36:27;-0.60;99.90
27741;DHT22;15134;48.768;9.184;2023-02-28T02:39:01;-0.60;99.90
27741;DHT22;15134;48.768;9.184;2023-02-28T02:44:24;-0.50;99.90
27741;DHT22;15134;48.768;9.184;2023-02-28T02:47:06;-0.40;99.90
27741;DHT22;15134;48.768;9.184;2023-02-28T02:49:36;-0.30;99.90
27741;DHT22;15134;48.768;9.184;2023-02-28T02:52:07;-0.30;99.90
27741;DHT22;15134;48.768;9.184;2023-02-28T02:54:40;-0.20;99.90
27741;DHT22;15134;48.768;9.184;2023-02-28T02:57:15;-0.10;99.90
27741;DHT22;15134;48.768;9.184;2023-02-28T02:59:45;-0.10;99.90
27741;DHT22;15134;48.768;9.184;2023-02-28T03:02:14;-0.10;99.90
27741;DHT22;15134;48.768;9.184;2023-02-28T03:04:53;-0.20;99.90
27741;DHT22;15134;48.768;9.184;2023-02-28T03:07:28;-0.30;99.90
27741;DHT22;15134;48.768;9.184;2023-02-28T03:09:55;-0.30;99.90
27741;DHT22;15134;48.768;9.184;2023-02-28T03:12:27;-0.40;99.90
27741;DHT22;15134;48.768;9.184;2023-02-28T03:26:29;0.00;99.90
27741;DHT22;15134;48.768;9.184;2023-02-28T03:29:05;-0.10;99.90
27741;DHT22;15134;48.768;9.184;2023-02-28T03:31:37;-0.10;99.90
27741;DHT22;15134;48.768;9.184;2023-02-28T03:34:14;-0.10;99.90
27741;DHT22;15134;48.768;9.184;2023-02-28T03:36:48;-0.30;99.90
27741;DHT22;15134;48.768;9.184;2023-02-28T03:39:19;-0.30;99.90
27741;DHT22;15134;48.768;9.184;2023-02-28T03:42:01;-0.20;99.90
27741;DHT22;15134;48.768;9.184;2023-02-28T03:44:32;-0.20;99.90
27741;DHT22;15134;48.768;9.184;2023-02-28T03:47:06;-0.30;99.90
27741;DHT22;15134;48.768;9.184;2023-02-28T03:49:40;-0.20;99.90
27741;DHT22;15134;48.768;9.184;2023-02-28T03:52:09;-0.10;99.90
27741;DHT22;15134;48.768;9.184;2023-02-28T03:54:42;0.00;99.90
27741;DHT22;15134;48.768;9.184;2023-02-28T03:58:11;0.00;99.90
27741;DHT22;15134;48.768;9.184;2023-02-28T04:00:34;0.00;99.90
27741;DHT22;15134;48.768;9.184;2023-02-28T04:03:04;-0.10;99.90
27741;DHT22;15134;48.768;9.184;2023-02-28T04:05:33;-0.20;99.90
27741;DHT22;15134;48.768;9.184;2023-02-28T04:08:10;-0.20;99.90
27741;DHT22;15134;48.768;9.184;2023-02-28T04:10:35;-0.10;99.90
27741;DHT22;15134;48.768;9.184;2023-02-28T04:13:01;-0.10;99.90
27741;DHT22;15134;48.768;9.184;2023-02-28T04:15:30;-0.10;99.90
27741;DHT22;15134;48.768;9.184;2023-02-28T04:17:55;-0.10;99.90
27741;DHT22;15134;48.768;9.184;2023-02-28T04:20:21;-0.10;99.90
27741;DHT22;15134;48.768;9.184;2023-02-28T04:22:50;-0.20;99.90
27741;DHT22;15134;48.768;9.184;2023-02-28T04:25:15;-0.20;99.90
27741;DHT22;15134;48.768;9.184;2023-02-28T04:27:41;-0.10;99.90
27741;DHT22;15134;48.768;9.184;2023-02-28T04:30:10;0.00;99.90
27741;DHT22;15134;48.768;9.184;2023-02-28T04:32:36;0.00;99.90
27741;DHT22;15134;48.768;9.184;2023-02-28T04:35:08;-0.20;99.90
27741;DHT22;15134;48.768;9.184;2023-02-28T04:37:37;-0.20;99.90
27741;DHT22;15134;48.768;9.184;2023-02-28T04:40:06;-0.20;99.90
27741;DHT22;15134;48.768;9.184;2023-02-28T04:42:32;-0.20;99.90
27741;DHT22;15134;48.768;9.184;2023-02-28T04:45:04;-0.10;99.90
27741;DHT22;15134;48.768;9.184;2023-02-28T04:47:30;0.00;99.90
27741;DHT22;15134;48.768;9.184;2023-02-28T04:49:58;0.10;99.90
27741;DHT22;15134;48.768;9.184;2023-02-28T04:52:23;0.10;99.90
27741;DHT22;15134;48.768;9.184;2023-02-28T04:54:49;0.10;99.90
27741;DHT22;15134;48.768;9.184;2023-02-28T04:57:15;0.20;99.90
27741;DHT22;15134;48.768;9.184;2023-02-28T04:59:41;0.20;99.90
27741;DHT22;15134;48.768;9.184;2023-02-28T05:02:09;0.20;99.90
27741;DHT22;15134;48.768;9.184;2023-02-28T05:04:36;0.20;99.90
27741;DHT22;15134;48.768;9.184;2023-02-28T05:07:02;0.10;99.90
27741;DHT22;15134;48.768;9.184;2023-02-28T05:09:28;0.20;99.90
27741;DHT22;15134;48.768;9.184;2023-02-28T05:11:55;0.10;99.90
27741;DHT22;15134;48.768;9.184;2023-02-28T05:14:21;0.00;99.90
27741;DHT22;15134;48.768;9.184;2023-02-28T05:16:49;0.00;99.90
27741;DHT22;15134;48.768;9.184;2023-02-28T05:19:15;0.00;99.90
27741;DHT22;15134;48.768;9.184;2023-02-28T05:21:53;-0.10;99.90
27741;DHT22;15134;48.768;9.184;2023-02-28T05:24:20;-0.10;99.90
27741;DHT22;15134;48.768;9.184;2023-02-28T05:26:53;-0.10;99.90
27741;DHT22;15134;48.768;9.184;2023-02-28T05:29:19;0.00;99.90
27741;DHT22;15134;48.768;9.184;2023-02-28T05:31:46;0.00;99.90
27741;DHT22;15134;48.768;9.184;2023-02-28T05:34:12;0.00;99.90
27741;DHT22;15134;48.768;9.184;2023-02-28T05:36:38;-0.10;99.90
27741;DHT22;15134;48.768;9.184;2023-02-28T05:39:06;-0.10;99.90
27741;DHT22;15134;48.768;9.184;2023-02-28T05:41:32;-0.10;99.90
27741;DHT22;15134;48.768;9.184;2023-02-28T05:44:04;-0.10;99.90
27741;DHT22;15134;48.768;9.184;2023-02-28T05:46:30;-0.10;99.90
27741;DHT22;15134;48.768;9.184;2023-02-28T05:48:56;-0.10;99.90
27741;DHT22;15134;48.768;9.184;2023-02-28T05:51:23;-0.10;99.90
27741;DHT22;15134;48.768;9.184;2023-02-28T05:53:49;-0.10;99.90
27741;DHT22;15134;48.768;9.184;2023-02-28T05:56:15;-0.10;99.90
27741;DHT22;15134;48.768;9.184;2023-02-28T05:58:41;-0.10;99.90
27741;DHT22;15134;48.768;9.184;2023-02-28T06:01:23;-0.10;99.90
27741;DHT22;15134;48.768;9.184;2023-02-28T06:03:49;-0.10;99.90
27741;DHT22;15134;48.768;9.184;2023-02-28T06:06:15;-0.20;99.90
27741;DHT22;15134;48.768;9.184;2023-02-28T06:08:41;-0.20;99.90
27741;DHT22;15134;48.768;9.184;2023-02-28T06:11:08;-0.20;99.90
27741;DHT22;15134;48.768;9.184;2023-02-28T06:13:34;-0.10;99.90
27741;DHT22;15134;48.768;9.184;2023-02-28T06:16:03;0.00;99.90
27741;DHT22;15134;48.768;9.184;2023-02-28T06:18:29;0.00;99.90
27741;DHT22;15134;48.768;9.184;2023-02-28T06:20:55;0.00;99.90
27741;DHT22;15134;48.768;9.184;2023-02-28T06:23:22;-0.10;99.90
27741;DHT22;15134;48.768;9.184;2023-02-28T06:25:47;-0.10;99.90
27741;DHT22;15134;48.768;9.184;2023-02-28T06:28:15;-0.10;99.90
27741;DHT22;15134;48.768;9.184;2023-02-28T06:30:41;-0.10;99.90
27741;DHT22;15134;48.768;9.184;2023-02-28T06:33:06;-0.10;99.90
27741;DHT22;15134;48.768;9.184;2023-02-28T06:35:32;-0.10;99.90
27741;DHT22;15134;48.768;9.184;2023-02-28T06:37:58;0.00;99.90
27741;DHT22;15134;48.768;9.184;2023-02-28T06:40:23;0.00;99.90
27741;DHT22;15134;48.768;9.184;2023-02-28T06:42:49;0.00;99.90
27741;DHT22;15134;48.768;9.184;2023-02-28T06:45:15;0.00;99.90
27741;DHT22;15134;48.768;9.184;2023-02-28T06:47:41;0.10;99.90
27741;DHT22;15134;48.768;9.184;2023-02-28T06:50:12;0.10;99.90
27741;DHT22;15134;48.768;9.184;2023-02-28T06:52:38;0.10;99.90
27741;DHT22;15134;48.768;9.184;2023-02-28T06:55:07;0.20;99.90
27741;DHT22;15134;48.768;9.184;2023-02-28T06:57:35;0.30;99.90
27741;DHT22;15134;48.768;9.184;2023-02-28T07:00:09;0.30;99.90
27741;DHT22;15134;48.768;9.184;2023-02-28T07:02:37;0.20;99.90
27741;DHT22;15134;48.768;9.184;2023-02-28T07:05:05;0.30;99.90
27741;DHT22;15134;48.768;9.184;2023-02-28T07:07:30;0.30;99.90
27741;DHT22;15134;48.768;9.184;2023-02-28T07:09:57;0.30;99.90
27741;DHT22;15134;48.768;9.184;2023-02-28T07:12:24;0.30;99.90
27741;DHT22;15134;48.768;9.184;2023-02-28T07:14:49;0.30;99.90
27741;DHT22;15134;48.768;9.184;2023-02-28T07:17:15;0.30;99.90
27741;DHT22;15134;48.768;9.184;2023-02-28T07:19:44;0.30;99.90
27741;DHT22;15134;48.768;9.184;2023-02-28T07:22:10;0.40;99.90
27741;DHT22;15134;48.768;9.184;2023-02-28T07:24:35;0.40;99.90
27741;DHT22;15134;48.768;9.184;2023-02-28T07:27:01;0.50;99.90
27741;DHT22;15134;48.768;9.184;2023-02-28T07:29:27;0.50;99.90
27741;DHT22;15134;48.768;9.184;2023-02-28T07:31:56;0.50;99.90
27741;DHT22;15134;48.768;9.184;2023-02-28T07:34:22;0.60;99.90
27741;DHT22;15134;48.768;9.184;2023-02-28T07:36:48;0.60;99.90
27741;DHT22;15134;48.768;9.184;2023-02-28T07:39:13;0.60;99.90
27741;DHT22;15134;48.768;9.184;2023-02-28T07:41:39;0.50;99.90
27741;DHT22;15134;48.768;9.184;2023-02-28T07:44:11;0.50;99.90
27741;DHT22;15134;48.768;9.184;2023-02-28T07:46:38;0.50;99.90
27741;DHT22;15134;48.768;9.184;2023-02-28T07:49:04;0.40;99.90
27741;DHT22;15134;48.768;9.184;2023-02-28T07:51:30;0.50;99.90
27741;DHT22;15134;48.768;9.184;2023-02-28T07:53:56;0.50;99.90
27741;DHT22;15134;48.768;9.184;2023-02-28T07:56:22;0.50;99.90
27741;DHT22;15134;48.768;9.184;2023-02-28T07:58:48;0.60;99.90
27741;DHT22;15134;48.768;9.184;2023-02-28T08:01:13;0.60;99.90
27741;DHT22;15134;48.768;9.184;2023-02-28T08:03:40;0.60;99.90
27741;DHT22;15134;48.768;9.184;2023-02-28T08:06:14;0.60;99.90
27741;DHT22;15134;48.768;9.184;2023-02-28T08:08:41;0.60;99.90
27741;DHT22;15134;48.768;9.184;2023-02-28T08:11:10;0.60;99.90
27741;DHT22;15134;48.768;9.184;2023-02-28T08:13:36;0.50;99.90
27741;DHT22;15134;48.768;9.184;2023-02-28T08:16:02;0.50;99.90
27741;DHT22;15134;48.768;9.184;2023-02-28T08:18:30;0.50;99.90
27741;DHT22;15134;48.768;9.184;2023-02-28T08:20:55;0.50;99.90
27741;DHT22;15134;48.768;9.184;2023-02-28T08:23:22;0.60;99.90
27741;DHT22;15134;48.768;9.184;2023-02-28T08:25:55;0.70;99.90
27741;DHT22;15134;48.768;9.184;2023-02-28T08:28:22;0.70;99.90
27741;DHT22;15134;48.768;9.184;2023-02-28T08:30:47;0.70;99.90
27741;DHT22;15134;48.768;9.184;2023-02-28T08:33:14;0.70;99.90
27741;DHT22;15134;48.768;9.184;2023-02-28T08:35:42;0.70;99.90
27741;DHT22;15134;48.768;9.184;2023-02-28T08:38:08;0.70;99.90
27741;DHT22;15134;48.768;9.184;2023-02-28T08:40:33;0.80;99.90
27741;DHT22;15134;48.768;9.184;2023-02-28T08:42:59;0.80;99.90
27741;DHT22;15134;48.768;9.184;2023-02-28T08:45:25;0.80;99.90
27741;DHT22;15134;48.768;9.184;2023-02-28T08:47:51;0.80;99.90
27741;DHT22;15134;48.768;9.184;2023-02-28T08:50:19;0.70;99.90
27741;DHT22;15134;48.768;9.184;2023-02-28T08:52:45;0.60;99.90
27741;DHT22;15134;48.768;9.184;2023-02-28T08:55:11;0.70;99.90
27741;DHT22;15134;48.768;9.184;2023-02-28T08:57:37;0.80;99.90
27741;DHT22;15134;48.768;9.184;2023-02-28T09:00:03;0.70;99.90
27741;DHT22;15134;48.768;9.184;2023-02-28T09:02:32;0.70;99.90
27741;DHT22;15134;48.768;9.184;2023-02-28T09:04:58;0.70;99.90
27741;DHT22;15134;48.768;9.184;2023-02-28T09:07:24;0.80;99.90
27741;DHT22;15134;48.768;9.184;2023-02-28T09:09:50;0.90;99.90
27741;DHT22;15134;48.768;9.184;2023-02-28T09:12:23;0.90;99.90
27741;DHT22;15134;48.768;9.184;2023-02-28T09:14:50;0.90;99.90
27741;DHT22;15134;48.768;9.184;2023-02-28T09:17:16;1.00;99.90
27741;DHT22;15134;48.768;9.184;2023-02-28T09:19:42;1.00;99.90
27741;DHT22;15134;48.768;9.184;2023-02-28T09:22:09;1.00;99.90
27741;DHT22;15134;48.768;9.184;2023-02-28T09:24:37;1.20;99.90
27741;DHT22;15134;48.768;9.184;2023-02-28T09:27:02;1.30;99.90
27741;DHT22;15134;48.768;9.184;2023-02-28T09:29:28;1.40;99.90
27741;DHT22;15134;48.768;9.184;2023-02-28T09:31:54;1.40;99.90
27741;DHT22;15134;48.768;9.184;2023-02-28T09:34:20;1.40;99.90
27741;DHT22;15134;48.768;9.184;2023-02-28T09:36:45;1.30;99.90
27741;DHT22;15134;48.768;9.184;2023-02-28T09:39:12;1.30;99.90
27741;DHT22;15134;48.768;9.184;2023-02-28T09:41:45;1.40;99.90
27741;DHT22;15134;48.768;9.184;2023-02-28T09:46:49;1.60;99.90
27741;DHT22;15134;48.768;9.184;2023-02-28T09:49:26;1.60;99.90
27741;DHT22;15134;48.768;9.184;2023-02-28T09:52:05;1.60;99.90
27741;DHT22;15134;48.768;9.184;2023-02-28T09:54:36;1.80;99.90
27741;DHT22;15134;48.768;9.184;2023-02-28T10:05:05;1.70;99.90
27741;DHT22;15134;48.768;9.184;2023-02-28T10:07:54;1.80;99.90
27741;DHT22;15134;48.768;9.184;2023-02-28T10:12:53;1.80;99.90
27741;DHT22;15134;48.768;9.184;2023-02-28T10:15:25;1.90;99.90
27741;DHT22;15134;48.768;9.184;2023-02-28T10:17:56;1.80;99.90
27741;DHT22;15134;48.768;9.184;2023-02-28T10:20:24;1.80;99.90
27741;DHT22;15134;48.768;9.184;2023-02-28T10:23:17;1.90;99.90
27741;DHT22;15134;48.768;9.184;2023-02-28T10:26:00;1.90;99.90
27741;DHT22;15134;48.768;9.184;2023-02-28T10:28:28;2.00;99.90
27741;DHT22;15134;48.768;9.184;2023-02-28T10:30:55;2.10;99.90
27741;DHT22;15134;48.768;9.184;2023-02-28T10:33:29;2.30;99.90
27741;DHT22;15134;48.768;9.184;2023-02-28T10:35:55;2.40;99.90
27741;DHT22;15134;48.768;9.184;2023-02-28T10:38:37;2.40;99.90
27741;DHT22;15134;48.768;9.184;2023-02-28T10:43:36;2.60;99.90
27741;DHT22;15134;48.768;9.184;2023-02-28T10:48:40;2.70;99.90
27741;DHT22;15134;48.768;9.184;2023-02-28T10:51:11;2.70;99.90
27741;DHT22;15134;48.768;9.184;2023-02-28T10:56:32;2.90;99.90
27741;DHT22;15134;48.768;9.184;2023-02-28T11:01:41;2.80;99.90
27741;DHT22;15134;48.768;9.184;2023-02-28T11:06:44;2.80;99.90
27741;DHT22;15134;48.768;9.184;2023-02-28T11:09:32;2.70;99.90
27741;DHT22;15134;48.768;9.184;2023-02-28T11:12:00;2.70;99.90
27741;DHT22;15134;48.768;9.184;2023-02-28T11:14:32;2.70;99.90
27741;DHT22;15134;48.768;9.184;2023-02-28T11:17:24;2.70;99.90
27741;DHT22;15134;48.768;9.184;2023-02-28T11:20:01;2.70;99.90
27741;DHT22;15134;48.768;9.184;2023-02-28T11:22:38;2.90;99.90
27741;DHT22;15134;48.768;9.184;2023-02-28T11:25:30;3.10;99.90
27741;DHT22;15134;48.768;9.184;2023-02-28T11:27:59;3.40;99.90
27741;DHT22;15134;48.768;9.184;2023-02-28T11:32:52;3.70;99.90
27741;DHT22;15134;48.768;9.184;2023-02-28T11:35:25;3.90;99.90
27741;DHT22;15134;48.768;9.184;2023-02-28T11:37:52;4.40;99.90
27741;DHT22;15134;48.768;9.184;2023-02-28T11:40:22;4.70;99.90
27741;DHT22;15134;48.768;9.184;2023-02-28T11:45:31;5.00;99.90
27741;DHT22;15134;48.768;9.184;2023-02-28T11:50:47;4.80;99.90
27741;DHT22;15134;48.768;9.184;2023-02-28T11:56:30;4.60;99.90
27741;DHT22;15134;48.768;9.184;2023-02-28T12:06:50;4.40;99.90
27741;DHT22;15134;48.768;9.184;2023-02-28T12:11:54;4.60;99.90
27741;DHT22;15134;48.768;9.184;2023-02-28T12:19:52;4.50;99.90
27741;DHT22;15134;48.768;9.184;2023-02-28T12:22:30;4.50;99.90
27741;DHT22;15134;48.768;9.184;2023-02-28T12:25:23;4.70;99.90
27741;DHT22;15134;48.768;9.184;2023-02-28T12:27:51;4.70;99.90
27741;DHT22;15134;48.768;9.184;2023-02-28T12:32:58;4.70;99.90
27741;DHT22;15134;48.768;9.184;2023-02-28T12:35:45;4.40;99.90
27741;DHT22;15134;48.768;9.184;2023-02-28T12:41:01;4.10;99.90
27741;DHT22;15134;48.768;9.184;2023-02-28T12:43:33;4.10;99.90
27741;DHT22;15134;48.768;9.184;2023-02-28T12:46:32;4.10;99.90
27741;DHT22;15134;48.768;9.184;2023-02-28T12:49:06;4.20;99.90
27741;DHT22;15134;48.768;9.184;2023-02-28T12:51:36;4.30;99.90
27741;DHT22;15134;48.768;9.184;2023-02-28T12:56:57;4.50;99.90
27741;DHT22;15134;48.768;9.184;2023-02-28T13:10:19;4.90;99.90
27741;DHT22;15134;48.768;9.184;2023-02-28T13:12:53;4.90;99.90
27741;DHT22;15134;48.768;9.184;2023-02-28T13:15:25;5.00;99.90
27741;DHT22;15134;48.768;9.184;2023-02-28T13:17:59;5.10;99.90
27741;DHT22;15134;48.768;9.184;2023-02-28T13:20:35;5.10;99.90
27741;DHT22;15134;48.768;9.184;2023-02-28T13:23:01;5.10;99.90
27741;DHT22;15134;48.768;9.184;2023-02-28T13:28:00;5.10;99.90
27741;DHT22;15134;48.768;9.184;2023-02-28T13:35:46;5.20;99.90
27741;DHT22;15134;48.768;9.184;2023-02-28T13:38:17;5.10;99.90
27741;DHT22;15134;48.768;9.184;2023-02-28T13:40:52;5.20;99.90
27741;DHT22;15134;48.768;9.184;2023-02-28T13:43:18;5.20;99.90
27741;DHT22;15134;48.768;9.184;2023-02-28T13:46:04;5.20;99.90
27741;DHT22;15134;48.768;9.184;2023-02-28T13:48:30;5.20;99.90
27741;DHT22;15134;48.768;9.184;2023-02-28T13:50:56;5.10;99.90
27741;DHT22;15134;48.768;9.184;2023-02-28T13:53:30;5.10;99.90
27741;DHT22;15134;48.768;9.184;2023-02-28T13:56:36;5.10;99.90
27741;DHT22;15134;48.768;9.184;2023-02-28T13:59:25;5.00;99.90
27741;DHT22;15134;48.768;9.184;2023-02-28T14:05:05;5.10;99.90
27741;DHT22;15134;48.768;9.184;2023-02-28T14:07:26;5.10;99.90
27741;DHT22;15134;48.768;9.184;2023-02-28T14:10:05;5.20;99.90
27741;DHT22;15134;48.768;9.184;2023-02-28T14:15:38;5.30;99.90
27741;DHT22;15134;48.768;9.184;2023-02-28T14:18:30;5.30;99.90
27741;DHT22;15134;48.768;9.184;2023-02-28T14:21:21;5.30;99.90
27741;DHT22;15134;48.768;9.184;2023-02-28T14:24:22;5.20;99.90
27741;DHT22;15134;48.768;9.184;2023-02-28T14:29:43;5.20;99.90
27741;DHT22;15134;48.768;9.184;2023-02-28T14:35:49;5.20;99.90
27741;DHT22;15134;48.768;9.184;2023-02-28T14:38:27;5.30;99.90
27741;DHT22;15134;48.768;9.184;2023-02-28T14:40:58;5.30;99.90
27741;DHT22;15134;48.768;9.184;2023-02-28T14:43:27;5.30;99.90
27741;DHT22;15134;48.768;9.184;2023-02-28T14:46:01;5.40;99.90
27741;DHT22;15134;48.768;9.184;2023-02-28T14:48:28;5.30;99.90
27741;DHT22;15134;48.768;9.184;2023-02-28T14:50:57;5.30;99.90
27741;DHT22;15134;48.768;9.184;2023-02-28T14:53:29;5.30;99.90
27741;DHT22;15134;48.768;9.184;2023-02-28T14:55:55;5.20;99.90
27741;DHT22;15134;48.768;9.184;2023-02-28T14:58:29;5.30;99.90
27741;DHT22;15134;48.768;9.184;2023-02-28T15:01:02;5.20;99.90
27741;DHT22;15134;48.768;9.184;2023-02-28T15:03:34;5.20;99.90
27741;DHT22;15134;48.768;9.184;2023-02-28T15:06:06;5.30;99.90
27741;DHT22;15134;48.768;9.184;2023-02-28T15:08:34;5.20;99.90
27741;DHT22;15134;48.768;9.184;2023-02-28T15:11:08;5.20;99.90
27741;DHT22;15134;48.768;9.184;2023-02-28T15:13:38;5.20;99.90
27741;DHT22;15134;48.768;9.184;2023-02-28T15:16:10;5.20;99.90
27741;DHT22;15134;48.768;9.184;2023-02-28T15:18:48;5.20;99.90
27741;DHT22;15134;48.768;9.184;2023-02-28T15:27:05;5.20;99.90
27741;DHT22;15134;48.768;9.184;2023-02-28T15:29:42;5.20;99.90
27741;DHT22;15134;48.768;9.184;2023-02-28T15:32:30;5.20;99.90
27741;DHT22;15134;48.768;9.184;2023-02-28T15:40:36;5.20;99.90
27741;DHT22;15134;48.768;9.184;2023-02-28T15:43:07;5.10;99.90
27741;DHT22;15134;48.768;9.184;2023-02-28T15:45:36;5.10;99.90
27741;DHT22;15134;48.768;9.184;2023-02-28T15:48:31;5.10;99.90
27741;DHT22;15134;48.768;9.184;2023-02-28T15:56:30;5.10;99.90
27741;DHT22;15134;48.768;9.184;2023-02-28T15:59:03;5.10;99.90
27741;DHT22;15134;48.768;9.184;2023-02-28T16:01:32;5.10;99.90
27741;DHT22;15134;48.768;9.184;2023-02-28T16:04:05;5.00;99.90
27741;DHT22;15134;48.768;9.184;2023-02-28T16:06:36;5.00;99.90
27741;DHT22;15134;48.768;9.184;2023-02-28T16:09:06;5.00;99.90
27741;DHT22;15134;48.768;9.184;2023-02-28T16:11:37;4.90;99.90
27741;DHT22;15134;48.768;9.184;2023-02-28T16:14:10;4.90;99.90
27741;DHT22;15134;48.768;9.184;2023-02-28T16:16:45;4.90;99.90
27741;DHT22;15134;48.768;9.184;2023-02-28T16:19:11;4.80;99.90
27741;DHT22;15134;48.768;9.184;2023-02-28T16:21:36;4.80;99.90
27741;DHT22;15134;48.768;9.184;2023-02-28T16:24:02;4.70;99.90
27741;DHT22;15134;48.768;9.184;2023-02-28T16:26:28;4.70;99.90
27741;DHT22;15134;48.768;9.184;2023-02-28T16:28:54;4.70;99.90
27741;DHT22;15134;48.768;9.184;2023-02-28T16:31:20;4.70;99.90
27741;DHT22;15134;48.768;9.184;2023-02-28T16:33:52;4.60;99.90
27741;DHT22;15134;48.768;9.184;2023-02-28T16:36:20;4.60;99.90
27741;DHT22;15134;48.768;9.184;2023-02-28T16:38:47;4.50;99.90
27741;DHT22;15134;48.768;9.184;2023-02-28T16:41:18;4.50;99.90
27741;DHT22;15134;48.768;9.184;2023-02-28T16:43:50;4.50;99.90
27741;DHT22;15134;48.768;9.184;2023-02-28T16:46:17;4.40;99.90
27741;DHT22;15134;48.768;9.184;2023-02-28T16:48:44;4.30;99.90
27741;DHT22;15134;48.768;9.184;2023-02-28T16:51:18;4.30;99.90
27741;DHT22;15134;48.768;9.184;2023-02-28T16:53:44;4.30;99.90
27741;DHT22;15134;48.768;9.184;2023-02-28T16:56:22;4.20;99.90
27741;DHT22;15134;48.768;9.184;2023-02-28T16:58:54;4.20;99.90
27741;DHT22;15134;48.768;9.184;2023-02-28T17:01:21;4.10;99.90
27741;DHT22;15134;48.768;9.184;2023-02-28T17:03:48;4.10;99.90
27741;DHT22;15134;48.768;9.184;2023-02-28T17:06:21;4.00;99.90
27741;DHT22;15134;48.768;9.184;2023-02-28T17:08:51;4.00;99.90
27741;DHT22;15134;48.768;9.184;2023-02-28T17:11:18;3.90;99.90
27741;DHT22;15134;48.768;9.184;2023-02-28T17:13:44;3.90;99.90
27741;DHT22;15134;48.768;9.184;2023-02-28T17:16:26;3.90;99.90
27741;DHT22;15134;48.768;9.184;2023-02-28T17:19:03;3.90;99.90
27741;DHT22;15134;48.768;9.184;2023-02-28T17:21:30;3.80;99.90
27741;DHT22;15134;48.768;9.184;2023-02-28T17:23:56;3.70;99.90
27741;DHT22;15134;48.768;9.184;2023-02-28T17:26:22;3.70;99.90
27741;DHT22;15134;48.768;9.184;2023-02-28T17:29:01;3.60;99.90
27741;DHT22;15134;48.768;9.184;2023-02-28T17:31:30;3.60;99.90
27741;DHT22;15134;48.768;9.184;2023-02-28T17:34:03;3.60;99.90
27741;DHT22;15134;48.768;9.184;2023-02-28T17:36:29;3.50;99.90
27741;DHT22;15134;48.768;9.184;2023-02-28T17:38:55;3.50;99.90
27741;DHT22;15134;48.768;9.184;2023-02-28T17:41:20;3.50;99.90
27741;DHT22;15134;48.768;9.184;2023-02-28T17:43:46;3.50;99.90
27741;DHT22;15134;48.768;9.184;2023-02-28T17:46:20;3.40;99.90
27741;DHT22;15134;48.768;9.184;2023-02-28T17:48:48;3.40;99.90
27741;DHT22;15134;48.768;9.184;2023-02-28T17:51:24;3.30;99.90
27741;DHT22;15134;48.768;9.184;2023-02-28T17:53:50;3.30;99.90
27741;DHT22;15134;48.768;9.184;2023-02-28T17:56:24;3.30;99.90
27741;DHT22;15134;48.768;9.184;2023-02-28T17:58:58;3.30;99.90
27741;DHT22;15134;48.768;9.184;2023-02-28T18:01:24;3.30;99.90
27741;DHT22;15134;48.768;9.184;2023-02-28T18:04:00;3.20;99.90
27741;DHT22;15134;48.768;9.184;2023-02-28T18:06:30;3.20;99.90
27741;DHT22;15134;48.768;9.184;2023-02-28T18:08:58;3.20;99.90
27741;DHT22;15134;48.768;9.184;2023-02-28T18:11:24;3.10;99.90
27741;DHT22;15134;48.768;9.184;2023-02-28T18:13:54;3.10;99.90
27741;DHT22;15134;48.768;9.184;2023-02-28T18:16:21;3.10;99.90
27741;DHT22;15134;48.768;9.184;2023-02-28T18:18:48;3.00;99.90
27741;DHT22;15134;48.768;9.184;2023-02-28T18:21:17;3.00;99.90
27741;DHT22;15134;48.768;9.184;2023-02-28T18:23:43;3.00;99.90
27741;DHT22;15134;48.768;9.184;2023-02-28T18:26:17;2.90;99.90
27741;DHT22;15134;48.768;9.184;2023-02-28T18:28:43;2.90;99.90